aviador You're here:

LFMC Decoded Metar

LE LUC in FRANCE
Report Time2017-08-23 04:00:00
UTC Time2017-08-23 04:15:35
Flight Rules vfr VFR
Wind240° at 04 kt
W.Decomp.*RWY 27: 3.4 kt HW 2.1 kt LCW
RWY 31: 1.3 kt HW 3.8 kt LCW
W.Rank240° ranks 6
Current wind is below 240° avg. (5.9)
Visibility9999 m
Phenomena:N/A
Clouds:N/A
Expected CloudBase > 3,200 ft AGL from Temp-Dew spread
CeilingNone
Temp17°C (ISA +3)
Dew Point09°C (59% RH)
AAT15.3°C
QNH1016 hPa
Density Alt607 ft
Elevation256 ft
Report Wrong Elevation
Raw Report
METAR LFMC 230400Z AUTO 24004KT 210V270 9999 ////// 17/09 Q1016=

Extra information for LFMC:More info

Metar Taf Metar & Taf Last 4 Metars F.Rules Stats Wind Profile Meteogram Temp Stats Airport Information Weather charts Add Link Nearby VenuesMetar ALERT Operation Metar Decoded Social comments